createdAt,value
2019-02-14T00:00:37.429Z,8.60
2019-02-14T00:03:04.864Z,8.60
2019-02-14T00:07:59.515Z,8.60
2019-02-14T00:10:26.901Z,8.60
2019-02-14T00:12:54.205Z,8.40
2019-02-14T00:15:21.562Z,8.60
2019-02-14T00:20:16.733Z,8.60
2019-02-14T00:22:44.102Z,8.60
2019-02-14T00:27:38.806Z,8.50
2019-02-14T00:30:06.669Z,8.60
2019-02-14T00:39:56.463Z,8.50
2019-02-14T00:42:23.987Z,8.50
2019-02-14T00:47:18.867Z,8.50
2019-02-14T00:49:46.189Z,8.50
2019-02-14T00:52:13.597Z,8.50
2019-02-14T00:57:08.425Z,8.40
2019-02-14T00:59:35.709Z,8.40
2019-02-14T01:02:03.028Z,8.40
2019-02-14T01:04:30.515Z,8.40
2019-02-14T01:09:25.287Z,8.40
2019-02-14T01:14:20.015Z,8.40
2019-02-14T01:16:47.347Z,8.40
2019-02-14T01:19:15.517Z,8.40
2019-02-14T01:24:10.198Z,8.40
2019-02-14T01:26:37.510Z,8.40
2019-02-14T01:31:32.043Z,8.40
2019-02-14T01:33:59.348Z,8.30
2019-02-14T01:36:26.643Z,8.40
2019-02-14T01:38:54.051Z,8.30
2019-02-14T01:41:21.604Z,8.30
2019-02-14T01:43:48.913Z,8.30
2019-02-14T01:46:16.364Z,8.30
2019-02-14T01:51:11.064Z,8.30
2019-02-14T01:53:38.517Z,8.30
2019-02-14T01:56:05.812Z,8.30
2019-02-14T01:58:33.094Z,8.30
2019-02-14T02:01:00.416Z,8.30
2019-02-14T02:08:22.240Z,8.20
2019-02-14T02:13:17.211Z,8.10
2019-02-14T02:15:44.604Z,8.10
2019-02-14T02:18:11.931Z,8.10
2019-02-14T02:20:39.222Z,8.10
2019-02-14T02:23:06.576Z,8.00
2019-02-14T02:28:01.604Z,8.00
2019-02-14T02:30:29.035Z,7.90
2019-02-14T02:32:56.349Z,7.90
2019-02-14T02:35:23.809Z,7.90
2019-02-14T02:37:51.189Z,7.90
2019-02-14T02:40:18.552Z,7.90
2019-02-14T02:42:45.906Z,7.90
2019-02-14T02:45:13.236Z,7.90
2019-02-14T02:50:09.908Z,7.90
2019-02-14T02:52:37.086Z,7.90
2019-02-14T02:55:04.780Z,8.00
2019-02-14T02:57:32.065Z,8.00
2019-02-14T03:02:26.581Z,8.10
2019-02-14T03:04:54.103Z,8.10
2019-02-14T03:09:48.774Z,8.10
2019-02-14T03:12:16.084Z,8.10
2019-02-14T03:14:43.514Z,8.20
2019-02-14T03:17:10.878Z,8.10
2019-02-14T03:19:38.318Z,8.10
2019-02-14T03:24:32.877Z,8.10
2019-02-14T03:27:00.269Z,8.10
2019-02-14T03:29:27.601Z,8.10
2019-02-14T03:34:22.518Z,8.10
2019-02-14T03:41:45.293Z,8.10
2019-02-14T03:44:12.727Z,8.10
2019-02-14T03:46:40.024Z,8.10
2019-02-14T03:49:07.459Z,8.10
2019-02-14T03:51:34.729Z,8.10
2019-02-14T03:54:02.168Z,8.10
2019-02-14T03:56:29.421Z,8.10
2019-02-14T03:58:56.767Z,8.10
2019-02-14T04:01:24.919Z,8.10
2019-02-14T04:03:52.264Z,8.10
2019-02-14T04:06:27.009Z,8.10
2019-02-14T04:08:48.838Z,8.10
2019-02-14T04:11:16.237Z,8.20
2019-02-14T04:13:43.503Z,8.20
2019-02-14T04:16:10.827Z,8.10
2019-02-14T04:18:38.418Z,8.20
2019-02-14T04:21:05.779Z,8.20
2019-02-14T04:24:12.521Z,8.20
2019-02-14T04:26:39.818Z,8.20
2019-02-14T04:29:26.834Z,8.20
2019-02-14T04:31:54.219Z,8.20
2019-02-14T04:34:21.526Z,8.20
2019-02-14T04:39:16.153Z,8.20
2019-02-14T04:41:43.435Z,8.20
2019-02-14T04:44:10.762Z,8.00
2019-02-14T04:53:59.969Z,8.00
2019-02-14T04:56:27.529Z,8.00
2019-02-14T04:58:55.062Z,8.00
2019-02-14T05:01:22.392Z,8.00
2019-02-14T05:03:49.692Z,8.00
2019-02-14T05:06:16.827Z,8.00
2019-02-14T05:08:43.887Z,8.00
2019-02-14T05:11:11.334Z,8.00
2019-02-14T05:16:06.053Z,8.00
2019-02-14T05:18:33.527Z,8.00
2019-02-14T05:21:01.030Z,8.00
2019-02-14T05:25:55.604Z,8.10
2019-02-14T05:28:23.092Z,8.10
2019-02-14T05:33:17.938Z,8.10
2019-02-14T05:35:45.308Z,8.10
2019-02-14T05:38:12.746Z,8.10
2019-02-14T05:40:40.206Z,8.10
2019-02-14T05:43:07.839Z,8.10
2019-02-14T05:50:30.012Z,8.00
2019-02-14T05:52:57.418Z,8.10
2019-02-14T05:57:52.177Z,8.10
2019-02-14T06:00:21.634Z,8.10
2019-02-14T06:02:49.131Z,8.10
2019-02-14T06:07:43.890Z,8.20
2019-02-14T06:10:11.220Z,8.20
2019-02-14T06:12:38.713Z,8.10
2019-02-14T06:15:06.742Z,8.20
2019-02-14T06:17:33.949Z,8.20
2019-02-14T06:20:01.162Z,8.20
2019-02-14T06:22:28.505Z,8.20
2019-02-14T06:24:55.853Z,8.10
2019-02-14T06:27:23.664Z,8.10
2019-02-14T06:29:51.087Z,8.10
2019-02-14T06:34:45.880Z,8.10
2019-02-14T06:37:13.294Z,8.10
2019-02-14T06:39:40.758Z,8.00
2019-02-14T06:42:07.866Z,8.10
2019-02-14T06:44:35.123Z,8.00
2019-02-14T06:47:02.566Z,8.00
2019-02-14T06:49:30.010Z,8.10
2019-02-14T06:51:57.541Z,8.10
2019-02-14T06:56:52.164Z,8.10
2019-02-14T06:59:19.543Z,8.10
2019-02-14T07:01:47.325Z,8.10
2019-02-14T07:04:14.751Z,8.10
2019-02-14T07:09:09.405Z,8.20
2019-02-14T07:11:36.733Z,8.20
2019-02-14T07:14:04.060Z,8.30
2019-02-14T07:16:31.423Z,8.20
2019-02-14T07:18:58.718Z,8.30
2019-02-14T07:21:25.982Z,8.30
2019-02-14T07:23:53.293Z,8.40
2019-02-14T07:26:20.621Z,8.40
2019-02-14T07:28:47.850Z,8.40
2019-02-14T07:33:42.485Z,8.50
2019-02-14T07:36:10.129Z,8.60
2019-02-14T07:41:04.980Z,8.70
2019-02-14T07:43:32.296Z,8.70
2019-02-14T07:45:59.592Z,8.70
2019-02-14T07:48:26.902Z,8.80
2019-02-14T07:50:54.374Z,8.90
2019-02-14T07:53:21.746Z,8.90
2019-02-14T07:55:49.082Z,8.90
2019-02-14T07:58:16.673Z,9.00
2019-02-14T08:00:43.970Z,9.00
2019-02-14T08:03:11.438Z,9.10
2019-02-14T08:08:06.019Z,9.20
2019-02-14T08:13:03.573Z,9.20
2019-02-14T08:15:30.960Z,9.30
2019-02-14T08:17:58.234Z,9.30
2019-02-14T08:20:25.452Z,9.40
2019-02-14T08:22:52.821Z,9.50
2019-02-14T08:27:47.299Z,9.60
2019-02-14T08:30:14.778Z,9.70
2019-02-14T08:35:09.442Z,9.90
2019-02-14T08:37:45.003Z,10.10
2019-02-14T08:40:08.694Z,10.20
2019-02-14T08:42:36.030Z,10.30
2019-02-14T08:45:04.408Z,10.40
2019-02-14T08:47:31.704Z,10.50
2019-02-14T08:49:59.018Z,10.70
2019-02-14T08:52:26.680Z,10.70
2019-02-14T08:54:53.974Z,11.60
2019-02-14T08:57:21.307Z,11.20
2019-02-14T08:59:48.721Z,11.50
2019-02-14T09:02:16.044Z,11.60
2019-02-14T09:04:43.376Z,11.80
2019-02-14T09:07:11.393Z,12.00
2019-02-14T09:09:39.010Z,12.30
2019-02-14T09:12:06.409Z,14.50
2019-02-14T09:14:34.690Z,12.90
2019-02-14T09:17:02.098Z,13.20
2019-02-14T09:19:29.432Z,13.50
2019-02-14T09:21:56.741Z,13.80
2019-02-14T09:24:24.411Z,14.10
2019-02-14T09:26:51.812Z,14.40
2019-02-14T09:29:19.159Z,14.70
2019-02-14T09:31:46.538Z,14.90
2019-02-14T09:34:13.871Z,15.10
2019-02-14T09:36:41.580Z,15.30
2019-02-14T09:39:09.002Z,15.50
2019-02-14T09:41:36.347Z,15.80
2019-02-14T09:44:03.786Z,15.90
2019-02-14T09:46:31.228Z,16.10
2019-02-14T09:48:58.608Z,16.20
2019-02-14T09:51:26.009Z,16.40
2019-02-14T09:53:53.389Z,16.50
2019-02-14T09:56:20.747Z,16.60
2019-02-14T09:58:48.511Z,17.50
2019-02-14T10:01:15.947Z,16.70
2019-02-14T10:03:43.345Z,16.80
2019-02-14T10:06:10.755Z,16.80
2019-02-14T10:08:38.156Z,16.80
2019-02-14T10:11:05.360Z,16.90
2019-02-14T10:13:32.643Z,16.90
2019-02-14T10:16:00.053Z,17.00
2019-02-14T10:18:27.443Z,17.10
2019-02-14T10:20:54.817Z,17.40
2019-02-14T10:23:22.114Z,17.50
2019-02-14T10:25:49.529Z,17.70
2019-02-14T10:28:16.964Z,17.80
2019-02-14T10:30:44.467Z,18.00
2019-02-14T10:33:11.782Z,18.20
2019-02-14T10:35:39.105Z,18.50
2019-02-14T10:38:06.471Z,18.60
2019-02-14T10:40:33.785Z,18.90
2019-02-14T10:43:01.160Z,19.20
2019-02-14T10:45:28.622Z,19.60
2019-02-14T10:47:56.010Z,20.00
2019-02-14T10:50:23.295Z,20.40
2019-02-14T10:52:50.608Z,20.90
2019-02-14T10:55:17.937Z,21.40
2019-02-14T10:57:45.396Z,21.80
2019-02-14T11:00:16.880Z,22.30
2019-02-14T11:02:44.749Z,22.70
2019-02-14T11:05:13.691Z,23.00
2019-02-14T11:07:41.030Z,23.20
2019-02-14T11:10:09.019Z,23.50
2019-02-14T11:12:36.541Z,23.80
2019-02-14T11:15:06.718Z,24.10
2019-02-14T11:17:34.123Z,24.40
2019-02-14T11:20:01.429Z,24.70
2019-02-14T11:22:28.730Z,25.00
2019-02-14T11:24:56.074Z,25.30
2019-02-14T11:27:23.459Z,25.60
2019-02-14T11:29:50.824Z,25.90
2019-02-14T11:32:18.128Z,26.10
2019-02-14T11:34:45.666Z,26.50
2019-02-14T11:37:13.116Z,26.80
2019-02-14T11:39:40.536Z,27.10
2019-02-14T11:42:08.008Z,27.40
2019-02-14T11:44:39.834Z,27.60
2019-02-14T11:47:04.759Z,27.70
2019-02-14T11:49:32.098Z,27.90
2019-02-14T11:51:59.429Z,27.90
2019-02-14T11:54:26.732Z,28.00
2019-02-14T11:56:54.210Z,28.10
2019-02-14T11:59:21.643Z,28.20
2019-02-14T12:01:55.150Z,28.40
2019-02-14T12:04:18.071Z,28.50
2019-02-14T12:06:45.511Z,28.60
2019-02-14T12:09:12.995Z,28.70
2019-02-14T12:11:40.401Z,28.90
2019-02-14T12:14:07.704Z,29.10
2019-02-14T12:16:35.104Z,29.20
2019-02-14T12:19:02.504Z,29.30
2019-02-14T12:21:29.906Z,29.30
2019-02-14T12:23:57.311Z,29.30
2019-02-14T12:26:24.697Z,29.30
2019-02-14T12:28:52.083Z,29.30
2019-02-14T12:31:19.364Z,29.10
2019-02-14T12:33:46.739Z,29.00
2019-02-14T12:36:14.197Z,28.90
2019-02-14T12:38:41.476Z,28.70
2019-02-14T12:41:08.783Z,28.70
2019-02-14T12:43:36.192Z,28.50
2019-02-14T12:46:03.617Z,28.40
2019-02-14T12:48:31.008Z,28.20
2019-02-14T12:50:58.415Z,28.00
2019-02-14T12:53:25.671Z,27.70
2019-02-14T12:55:53.143Z,27.50
2019-02-14T12:58:20.566Z,26.80
2019-02-14T13:00:48.038Z,27.10
2019-02-14T13:03:15.395Z,26.90
2019-02-14T13:05:42.676Z,26.80
2019-02-14T13:08:10.095Z,26.70
2019-02-14T13:10:37.536Z,26.60
2019-02-14T13:13:04.923Z,26.50
2019-02-14T13:15:32.242Z,26.40
2019-02-14T13:17:59.558Z,26.40
2019-02-14T13:20:26.831Z,26.30
2019-02-14T13:22:54.137Z,26.30
2019-02-14T13:25:21.471Z,26.40
2019-02-14T13:27:48.812Z,26.50
2019-02-14T13:30:19.145Z,26.60
2019-02-14T13:32:46.465Z,26.80
2019-02-14T13:35:13.855Z,26.90
2019-02-14T13:37:41.438Z,27.10
2019-02-14T13:40:08.833Z,27.30
2019-02-14T13:42:36.178Z,27.50
2019-02-14T13:45:03.785Z,27.70
2019-02-14T13:47:31.219Z,27.80
2019-02-14T13:49:58.710Z,27.90
2019-02-14T13:52:26.369Z,28.00
2019-02-14T13:54:53.797Z,28.00
2019-02-14T13:57:21.430Z,28.10
2019-02-14T13:59:48.740Z,28.10
2019-02-14T14:02:16.160Z,28.30
2019-02-14T14:04:44.821Z,29.10
2019-02-14T14:07:12.388Z,28.40
2019-02-14T14:09:39.738Z,28.50
2019-02-14T14:12:07.109Z,28.60
2019-02-14T14:14:34.489Z,28.70
2019-02-14T14:17:01.814Z,28.70
2019-02-14T14:19:30.495Z,28.60
2019-02-14T14:21:57.944Z,28.50
2019-02-14T14:24:25.281Z,28.40
2019-02-14T14:26:52.563Z,28.20
2019-02-14T14:29:19.932Z,28.00
2019-02-14T14:31:47.345Z,27.90
2019-02-14T14:34:14.634Z,27.90
2019-02-14T14:36:41.970Z,27.80
2019-02-14T14:39:09.329Z,27.70
2019-02-14T14:41:36.775Z,27.60
2019-02-14T14:44:25.920Z,27.50
2019-02-14T14:46:57.105Z,27.40
2019-02-14T14:49:24.527Z,27.20
2019-02-14T14:51:51.858Z,26.90
2019-02-14T14:54:19.277Z,26.70
2019-02-14T14:56:46.648Z,26.40
2019-02-14T14:59:14.039Z,26.10
2019-02-14T15:01:41.390Z,25.80
2019-02-14T15:04:08.841Z,25.40
2019-02-14T15:06:36.255Z,25.00
2019-02-14T15:09:05.810Z,24.60
2019-02-14T15:11:33.215Z,24.20
2019-02-14T15:14:00.646Z,23.20
2019-02-14T15:16:28.084Z,23.50
2019-02-14T15:18:55.540Z,23.10
2019-02-14T15:21:22.930Z,22.70
2019-02-14T15:23:50.255Z,22.40
2019-02-14T15:26:17.544Z,21.80
2019-02-14T15:28:45.319Z,21.50
2019-02-14T15:31:12.609Z,21.40
2019-02-14T15:33:43.199Z,20.90
2019-02-14T15:36:10.701Z,20.90
2019-02-14T15:38:38.178Z,20.70
2019-02-14T15:41:05.542Z,20.40
2019-02-14T15:43:32.898Z,20.20
2019-02-14T15:46:00.253Z,20.00
2019-02-14T15:48:27.538Z,19.80
2019-02-14T15:50:56.741Z,19.60
2019-02-14T15:53:23.827Z,19.50
2019-02-14T15:55:51.239Z,19.30
2019-02-14T15:58:18.562Z,19.20
2019-02-14T16:00:45.909Z,19.00
2019-02-14T16:03:15.309Z,18.80
2019-02-14T16:05:42.733Z,18.70
2019-02-14T16:08:10.178Z,18.60
2019-02-14T16:10:37.503Z,18.40
2019-02-14T16:13:05.814Z,18.30
2019-02-14T16:15:34.071Z,18.50
2019-02-14T16:18:01.722Z,18.10
2019-02-14T16:20:29.209Z,18.00
2019-02-14T16:22:56.611Z,17.90
2019-02-14T16:25:23.886Z,17.80
2019-02-14T16:27:51.049Z,17.70
2019-02-14T16:30:18.411Z,17.60
2019-02-14T16:32:45.834Z,17.50
2019-02-14T16:35:13.289Z,17.40
2019-02-14T16:37:40.686Z,17.30
2019-02-14T16:40:10.302Z,17.20
2019-02-14T16:42:37.672Z,17.10
2019-02-14T16:45:05.249Z,17.00
2019-02-14T16:47:32.738Z,16.90
2019-02-14T16:50:00.343Z,16.80
2019-02-14T16:52:27.728Z,16.60
2019-02-14T16:54:55.052Z,16.60
2019-02-14T16:57:22.480Z,16.50
2019-02-14T16:59:49.934Z,16.40
2019-02-14T17:02:17.411Z,16.50
2019-02-14T17:04:44.773Z,16.10
2019-02-14T17:07:11.979Z,16.10
2019-02-14T17:09:39.321Z,16.00
2019-02-14T17:12:07.553Z,15.90
2019-02-14T17:14:34.979Z,15.80
2019-02-14T17:17:02.324Z,15.70
2019-02-14T17:19:29.676Z,15.60
2019-02-14T17:21:57.128Z,15.50
2019-02-14T17:24:24.466Z,15.40
2019-02-14T17:26:51.773Z,15.40
2019-02-14T17:29:19.043Z,15.30
2019-02-14T17:31:46.394Z,15.20
2019-02-14T17:34:13.952Z,15.20
2019-02-14T17:36:42.025Z,15.10
2019-02-14T17:39:10.099Z,15.00
2019-02-14T17:41:37.475Z,15.00
2019-02-14T17:44:04.802Z,14.90
2019-02-14T17:46:32.100Z,14.80
2019-02-14T17:48:59.601Z,14.80
2019-02-14T17:51:26.960Z,14.80
2019-02-14T17:53:54.380Z,14.70
2019-02-14T17:56:21.739Z,14.60
2019-02-14T17:58:49.158Z,14.50
2019-02-14T18:01:16.585Z,14.50
2019-02-14T18:03:43.861Z,14.40
2019-02-14T18:06:11.285Z,14.30
2019-02-14T18:08:38.699Z,14.30
2019-02-14T18:11:06.188Z,14.20
2019-02-14T18:13:33.554Z,14.20
2019-02-14T18:16:00.875Z,14.10
2019-02-14T18:18:28.262Z,14.00
2019-02-14T18:20:55.674Z,14.00
2019-02-14T18:23:23.241Z,14.00
2019-02-14T18:26:10.197Z,13.90
2019-02-14T18:28:37.509Z,13.80
2019-02-14T18:33:50.251Z,13.80
2019-02-14T18:36:19.078Z,13.70
2019-02-14T18:38:46.688Z,13.70
2019-02-14T18:41:15.764Z,13.60
2019-02-14T18:46:10.426Z,13.60
2019-02-14T18:48:38.174Z,13.60
2019-02-14T18:51:05.595Z,13.50
2019-02-14T18:53:33.104Z,13.50
2019-02-14T18:56:01.085Z,13.50
2019-02-14T18:58:28.693Z,13.40
2019-02-14T19:00:56.454Z,13.40
2019-02-14T19:03:24.047Z,11.30
2019-02-14T19:05:51.514Z,13.40
2019-02-14T19:08:18.856Z,13.30
2019-02-14T19:10:46.337Z,13.30
2019-02-14T19:16:33.551Z,13.20
2019-02-14T19:19:01.293Z,13.10
2019-02-14T19:21:28.885Z,13.10
2019-02-14T19:23:56.321Z,13.10
2019-02-14T19:26:23.804Z,13.00
2019-02-14T19:28:51.157Z,12.90
2019-02-14T19:31:18.699Z,12.90
2019-02-14T19:33:46.246Z,12.90
2019-02-14T19:36:13.713Z,10.10
2019-02-14T19:38:41.066Z,12.70
2019-02-14T19:41:08.479Z,12.70
2019-02-14T19:43:36.026Z,12.70
2019-02-14T19:46:03.525Z,12.60
2019-02-14T19:48:30.913Z,12.60
2019-02-14T19:50:58.388Z,12.50
2019-02-14T19:53:26.651Z,12.50
2019-02-14T19:55:54.448Z,12.50
2019-02-14T19:58:22.115Z,12.40
2019-02-14T20:00:49.801Z,13.30
2019-02-14T20:03:17.144Z,12.40
2019-02-14T20:05:45.248Z,12.30
2019-02-14T20:08:12.854Z,10.70
2019-02-14T20:10:40.448Z,12.20
2019-02-14T20:13:17.090Z,12.20
2019-02-14T20:15:44.638Z,12.30
2019-02-14T20:18:12.077Z,12.10
2019-02-14T20:20:39.576Z,14.90
2019-02-14T20:23:07.276Z,12.00
2019-02-14T20:25:34.807Z,12.00
2019-02-14T20:28:02.330Z,12.00
2019-02-14T20:30:29.684Z,12.00
2019-02-14T20:33:04.490Z,11.90
2019-02-14T20:35:26.641Z,13.20
2019-02-14T20:37:54.190Z,11.80
2019-02-14T20:40:21.582Z,11.80
2019-02-14T20:42:49.058Z,9.00
2019-02-14T20:45:16.720Z,12.10
2019-02-14T20:47:44.351Z,12.80
2019-02-14T20:50:12.890Z,13.00
2019-02-14T20:52:40.373Z,11.60
2019-02-14T20:55:09.831Z,12.30
2019-02-14T20:57:37.413Z,11.60
2019-02-14T21:00:07.734Z,11.60
2019-02-14T21:02:35.183Z,12.10
2019-02-14T21:05:02.679Z,12.30
2019-02-14T21:07:30.903Z,11.50
2019-02-14T21:09:59.642Z,9.50
2019-02-14T21:12:27.694Z,11.40
2019-02-14T21:14:55.562Z,11.40
2019-02-14T21:17:23.515Z,11.30
2019-02-14T21:19:52.422Z,14.10
2019-02-14T21:22:26.662Z,11.30
2019-02-14T21:24:55.040Z,11.30
2019-02-14T21:27:22.658Z,11.70
2019-02-14T21:29:50.135Z,11.10
2019-02-14T21:32:17.900Z,11.10
2019-02-14T21:34:45.970Z,11.10
2019-02-14T21:37:14.042Z,11.10
2019-02-14T21:39:41.671Z,11.10
2019-02-14T21:42:20.842Z,11.10
2019-02-14T21:44:42.242Z,11.10
2019-02-14T21:47:10.002Z,11.00
2019-02-14T21:49:38.982Z,11.00
2019-02-14T21:52:06.762Z,13.60
2019-02-14T21:54:34.358Z,13.90
2019-02-14T21:57:02.006Z,11.00
2019-02-14T21:59:29.870Z,11.20
2019-02-14T22:01:57.974Z,10.90
2019-02-14T22:04:26.300Z,9.20
2019-02-14T22:06:53.749Z,12.00
2019-02-14T22:09:21.213Z,10.90
2019-02-14T22:11:48.736Z,10.80
2019-02-14T22:14:16.249Z,10.70
2019-02-14T22:16:43.822Z,8.50
2019-02-14T22:19:12.661Z,10.70
2019-02-14T22:21:40.043Z,11.70
2019-02-14T22:24:08.840Z,10.60
2019-02-14T22:26:36.277Z,10.50
2019-02-14T22:29:03.673Z,12.60
2019-02-14T22:31:31.295Z,10.50
2019-02-14T22:33:58.948Z,10.50
2019-02-14T22:36:29.167Z,10.40
2019-02-14T22:38:56.562Z,10.40
2019-02-14T22:41:23.945Z,10.30
2019-02-14T22:43:51.196Z,12.00
2019-02-14T22:46:18.654Z,10.80
2019-02-14T22:48:46.099Z,10.30
2019-02-14T22:51:13.567Z,10.30
2019-02-14T22:53:40.964Z,9.60
2019-02-14T22:56:08.347Z,12.10
2019-02-14T22:58:35.847Z,8.80
2019-02-14T23:01:03.709Z,10.20
2019-02-14T23:03:31.135Z,10.40
2019-02-14T23:05:59.508Z,10.20
2019-02-14T23:08:26.901Z,10.10
2019-02-14T23:10:54.258Z,10.10
2019-02-14T23:13:21.718Z,10.10
2019-02-14T23:15:49.055Z,10.10
2019-02-14T23:18:16.390Z,10.40
2019-02-14T23:20:44.487Z,10.00
2019-02-14T23:23:12.002Z,10.80
2019-02-14T23:25:39.308Z,10.00
2019-02-14T23:28:06.894Z,10.50
2019-02-14T23:30:34.176Z,11.20
2019-02-14T23:33:01.584Z,10.00
2019-02-14T23:35:29.124Z,11.00
2019-02-14T23:37:56.900Z,10.00
2019-02-14T23:40:27.161Z,9.90
2019-02-14T23:43:04.835Z,9.90
2019-02-14T23:45:29.198Z,9.90
2019-02-14T23:47:56.526Z,11.40
2019-02-14T23:50:24.035Z,9.80
2019-02-14T23:52:51.466Z,10.00
2019-02-14T23:55:18.874Z,9.80
2019-02-14T23:57:46.190Z,10.90
